sensor_id;sensor_type;location;lat;lon;timestamp;P1;durP1;ratioP1;P2;durP2;ratioP2
51288;SDS011;37372;52.294;5.152;2022-07-25T00:00:35;4.75;;;3.28;;
51288;SDS011;37372;52.294;5.152;2022-07-25T00:03:01;3.42;;;2.83;;
51288;SDS011;37372;52.294;5.152;2022-07-25T00:05:27;5.88;;;3.60;;
51288;SDS011;37372;52.294;5.152;2022-07-25T00:07:52;3.90;;;3.10;;
51288;SDS011;37372;52.294;5.152;2022-07-25T00:10:17;5.18;;;3.25;;
51288;SDS011;37372;52.294;5.152;2022-07-25T00:12:43;4.35;;;3.35;;
51288;SDS011;37372;52.294;5.152;2022-07-25T00:15:09;5.45;;;3.50;;
51288;SDS011;37372;52.294;5.152;2022-07-25T00:17:34;4.75;;;3.03;;
51288;SDS011;37372;52.294;5.152;2022-07-25T00:20:00;4.75;;;3.75;;
51288;SDS011;37372;52.294;5.152;2022-07-25T00:22:26;5.88;;;3.58;;
51288;SDS011;37372;52.294;5.152;2022-07-25T00:24:51;6.25;;;3.72;;
51288;SDS011;37372;52.294;5.152;2022-07-25T00:27:17;4.55;;;3.42;;
51288;SDS011;37372;52.294;5.152;2022-07-25T00:29:42;6.82;;;3.78;;
51288;SDS011;37372;52.294;5.152;2022-07-25T00:32:07;5.72;;;4.05;;
51288;SDS011;37372;52.294;5.152;2022-07-25T00:34:33;6.07;;;4.00;;
51288;SDS011;37372;52.294;5.152;2022-07-25T00:36:58;6.85;;;3.78;;
51288;SDS011;37372;52.294;5.152;2022-07-25T00:39:24;5.65;;;3.78;;
51288;SDS011;37372;52.294;5.152;2022-07-25T00:41:49;5.32;;;3.47;;
51288;SDS011;37372;52.294;5.152;2022-07-25T00:44:24;5.57;;;4.45;;
51288;SDS011;37372;52.294;5.152;2022-07-25T00:46:52;7.03;;;4.28;;
51288;SDS011;37372;52.294;5.152;2022-07-25T00:49:18;7.25;;;4.30;;
51288;SDS011;37372;52.294;5.152;2022-07-25T00:51:44;5.38;;;3.90;;
51288;SDS011;37372;52.294;5.152;2022-07-25T00:54:09;7.93;;;3.88;;
51288;SDS011;37372;52.294;5.152;2022-07-25T00:56:38;5.90;;;3.90;;
51288;SDS011;37372;52.294;5.152;2022-07-25T00:59:04;5.00;;;3.72;;
51288;SDS011;37372;52.294;5.152;2022-07-25T01:01:29;6.00;;;4.80;;
51288;SDS011;37372;52.294;5.152;2022-07-25T01:03:55;9.65;;;4.40;;
51288;SDS011;37372;52.294;5.152;2022-07-25T01:06:21;5.97;;;4.18;;
51288;SDS011;37372;52.294;5.152;2022-07-25T01:08:46;6.32;;;4.05;;
51288;SDS011;37372;52.294;5.152;2022-07-25T01:11:13;6.20;;;3.65;;
51288;SDS011;37372;52.294;5.152;2022-07-25T01:13:39;5.38;;;4.05;;
51288;SDS011;37372;52.294;5.152;2022-07-25T01:16:04;8.30;;;4.50;;
51288;SDS011;37372;52.294;5.152;2022-07-25T01:18:30;5.68;;;4.28;;
51288;SDS011;37372;52.294;5.152;2022-07-25T01:20:55;7.47;;;4.30;;
51288;SDS011;37372;52.294;5.152;2022-07-25T01:23:21;5.15;;;4.00;;
51288;SDS011;37372;52.294;5.152;2022-07-25T01:25:46;7.40;;;3.80;;
51288;SDS011;37372;52.294;5.152;2022-07-25T01:28:11;6.90;;;4.38;;
51288;SDS011;37372;52.294;5.152;2022-07-25T01:30:37;5.18;;;3.85;;
51288;SDS011;37372;52.294;5.152;2022-07-25T01:33:02;10.85;;;5.60;;
51288;SDS011;37372;52.294;5.152;2022-07-25T01:35:28;6.32;;;4.40;;
51288;SDS011;37372;52.294;5.152;2022-07-25T01:37:53;5.78;;;3.92;;
51288;SDS011;37372;52.294;5.152;2022-07-25T01:40:18;6.93;;;4.65;;
51288;SDS011;37372;52.294;5.152;2022-07-25T01:42:44;6.05;;;4.32;;
51288;SDS011;37372;52.294;5.152;2022-07-25T01:45:10;7.45;;;4.10;;
51288;SDS011;37372;52.294;5.152;2022-07-25T01:47:36;7.60;;;4.50;;
51288;SDS011;37372;52.294;5.152;2022-07-25T01:50:02;5.93;;;4.07;;
51288;SDS011;37372;52.294;5.152;2022-07-25T01:52:28;5.65;;;4.18;;
51288;SDS011;37372;52.294;5.152;2022-07-25T01:54:53;5.18;;;4.20;;
51288;SDS011;37372;52.294;5.152;2022-07-25T01:57:19;8.10;;;4.57;;
51288;SDS011;37372;52.294;5.152;2022-07-25T01:59:44;7.32;;;4.60;;
51288;SDS011;37372;52.294;5.152;2022-07-25T02:02:09;7.50;;;4.25;;
51288;SDS011;37372;52.294;5.152;2022-07-25T02:04:35;6.40;;;4.53;;
51288;SDS011;37372;52.294;5.152;2022-07-25T02:07:00;6.32;;;5.00;;
51288;SDS011;37372;52.294;5.152;2022-07-25T02:09:26;7.72;;;4.25;;
51288;SDS011;37372;52.294;5.152;2022-07-25T02:11:52;5.32;;;4.20;;
51288;SDS011;37372;52.294;5.152;2022-07-25T02:14:18;7.13;;;5.00;;
51288;SDS011;37372;52.294;5.152;2022-07-25T02:16:43;6.20;;;4.50;;
51288;SDS011;37372;52.294;5.152;2022-07-25T02:19:08;8.82;;;4.45;;
51288;SDS011;37372;52.294;5.152;2022-07-25T02:21:34;5.28;;;4.38;;
51288;SDS011;37372;52.294;5.152;2022-07-25T02:23:59;5.80;;;4.45;;
51288;SDS011;37372;52.294;5.152;2022-07-25T02:26:25;7.80;;;4.65;;
51288;SDS011;37372;52.294;5.152;2022-07-25T02:28:51;6.57;;;4.65;;
51288;SDS011;37372;52.294;5.152;2022-07-25T02:31:16;5.95;;;4.28;;
51288;SDS011;37372;52.294;5.152;2022-07-25T02:33:42;8.75;;;5.07;;
51288;SDS011;37372;52.294;5.152;2022-07-25T02:36:07;6.90;;;4.75;;
51288;SDS011;37372;52.294;5.152;2022-07-25T02:38:33;7.20;;;4.45;;
51288;SDS011;37372;52.294;5.152;2022-07-25T02:40:59;6.80;;;5.13;;
51288;SDS011;37372;52.294;5.152;2022-07-25T02:43:24;6.53;;;5.05;;
51288;SDS011;37372;52.294;5.152;2022-07-25T02:45:49;7.13;;;5.18;;
51288;SDS011;37372;52.294;5.152;2022-07-25T02:48:15;8.18;;;5.35;;
51288;SDS011;37372;52.294;5.152;2022-07-25T02:50:40;6.82;;;5.47;;
51288;SDS011;37372;52.294;5.152;2022-07-25T02:53:06;7.63;;;5.55;;
51288;SDS011;37372;52.294;5.152;2022-07-25T02:55:31;9.55;;;5.47;;
51288;SDS011;37372;52.294;5.152;2022-07-25T02:57:57;7.85;;;5.43;;
51288;SDS011;37372;52.294;5.152;2022-07-25T03:00:22;7.63;;;5.57;;
51288;SDS011;37372;52.294;5.152;2022-07-25T03:02:48;7.38;;;5.57;;
51288;SDS011;37372;52.294;5.152;2022-07-25T03:05:14;8.13;;;5.05;;
51288;SDS011;37372;52.294;5.152;2022-07-25T03:07:41;8.75;;;5.70;;
51288;SDS011;37372;52.294;5.152;2022-07-25T03:10:08;6.68;;;5.20;;
51288;SDS011;37372;52.294;5.152;2022-07-25T03:12:34;8.85;;;5.90;;
51288;SDS011;37372;52.294;5.152;2022-07-25T03:15:00;7.18;;;5.28;;
51288;SDS011;37372;52.294;5.152;2022-07-25T03:17:26;13.75;;;6.32;;
51288;SDS011;37372;52.294;5.152;2022-07-25T03:19:52;7.15;;;5.10;;
51288;SDS011;37372;52.294;5.152;2022-07-25T03:22:18;8.27;;;5.53;;
51288;SDS011;37372;52.294;5.152;2022-07-25T03:24:44;7.05;;;5.38;;
51288;SDS011;37372;52.294;5.152;2022-07-25T03:27:09;8.00;;;5.88;;
51288;SDS011;37372;52.294;5.152;2022-07-25T03:29:34;8.65;;;6.28;;
51288;SDS011;37372;52.294;5.152;2022-07-25T03:32:00;11.40;;;5.72;;
51288;SDS011;37372;52.294;5.152;2022-07-25T03:34:26;6.82;;;5.65;;
51288;SDS011;37372;52.294;5.152;2022-07-25T03:36:51;8.38;;;5.95;;
51288;SDS011;37372;52.294;5.152;2022-07-25T03:39:17;8.98;;;5.93;;
51288;SDS011;37372;52.294;5.152;2022-07-25T03:41:45;8.70;;;5.53;;
51288;SDS011;37372;52.294;5.152;2022-07-25T03:44:11;10.00;;;5.32;;
51288;SDS011;37372;52.294;5.152;2022-07-25T03:46:36;8.07;;;5.57;;
51288;SDS011;37372;52.294;5.152;2022-07-25T03:49:02;7.45;;;5.55;;
51288;SDS011;37372;52.294;5.152;2022-07-25T03:51:27;7.32;;;5.32;;
51288;SDS011;37372;52.294;5.152;2022-07-25T03:53:52;7.72;;;5.47;;
51288;SDS011;37372;52.294;5.152;2022-07-25T03:56:38;8.02;;;5.75;;
51288;SDS011;37372;52.294;5.152;2022-07-25T03:59:05;8.05;;;5.65;;
51288;SDS011;37372;52.294;5.152;2022-07-25T04:01:34;7.00;;;6.22;;
51288;SDS011;37372;52.294;5.152;2022-07-25T04:04:00;8.50;;;5.53;;
51288;SDS011;37372;52.294;5.152;2022-07-25T04:06:25;8.20;;;5.18;;
51288;SDS011;37372;52.294;5.152;2022-07-25T04:08:51;11.27;;;6.28;;
51288;SDS011;37372;52.294;5.152;2022-07-25T04:11:17;7.53;;;5.57;;
51288;SDS011;37372;52.294;5.152;2022-07-25T04:13:42;7.53;;;6.53;;
51288;SDS011;37372;52.294;5.152;2022-07-25T04:16:08;8.00;;;6.35;;
51288;SDS011;37372;52.294;5.152;2022-07-25T04:18:34;8.50;;;5.57;;
51288;SDS011;37372;52.294;5.152;2022-07-25T04:20:59;9.40;;;6.82;;
51288;SDS011;37372;52.294;5.152;2022-07-25T04:23:26;9.23;;;7.07;;
51288;SDS011;37372;52.294;5.152;2022-07-25T04:25:52;10.05;;;6.90;;
51288;SDS011;37372;52.294;5.152;2022-07-25T04:28:18;12.57;;;8.00;;
51288;SDS011;37372;52.294;5.152;2022-07-25T04:30:43;9.95;;;7.63;;
51288;SDS011;37372;52.294;5.152;2022-07-25T04:33:09;10.25;;;7.78;;
51288;SDS011;37372;52.294;5.152;2022-07-25T04:35:35;9.95;;;7.63;;
51288;SDS011;37372;52.294;5.152;2022-07-25T04:38:00;9.60;;;7.95;;
51288;SDS011;37372;52.294;5.152;2022-07-25T04:40:26;9.30;;;7.38;;
51288;SDS011;37372;52.294;5.152;2022-07-25T04:42:51;10.02;;;7.93;;
51288;SDS011;37372;52.294;5.152;2022-07-25T04:45:16;11.73;;;8.02;;
51288;SDS011;37372;52.294;5.152;2022-07-25T04:47:42;9.18;;;7.22;;
51288;SDS011;37372;52.294;5.152;2022-07-25T04:50:07;9.43;;;7.65;;
51288;SDS011;37372;52.294;5.152;2022-07-25T04:52:33;8.77;;;7.15;;
51288;SDS011;37372;52.294;5.152;2022-07-25T04:54:59;9.23;;;7.95;;
51288;SDS011;37372;52.294;5.152;2022-07-25T04:57:24;11.25;;;8.05;;
51288;SDS011;37372;52.294;5.152;2022-07-25T04:59:49;8.60;;;7.35;;
51288;SDS011;37372;52.294;5.152;2022-07-25T05:02:15;12.63;;;8.52;;
51288;SDS011;37372;52.294;5.152;2022-07-25T05:04:40;10.60;;;8.57;;
51288;SDS011;37372;52.294;5.152;2022-07-25T05:07:05;15.07;;;8.98;;
51288;SDS011;37372;52.294;5.152;2022-07-25T05:09:31;12.15;;;8.35;;
51288;SDS011;37372;52.294;5.152;2022-07-25T05:11:56;10.15;;;8.57;;
51288;SDS011;37372;52.294;5.152;2022-07-25T05:14:21;11.52;;;8.48;;
51288;SDS011;37372;52.294;5.152;2022-07-25T05:16:47;11.75;;;10.10;;
51288;SDS011;37372;52.294;5.152;2022-07-25T05:19:12;13.82;;;10.25;;
51288;SDS011;37372;52.294;5.152;2022-07-25T05:21:37;11.55;;;9.27;;
51288;SDS011;37372;52.294;5.152;2022-07-25T05:24:03;13.43;;;10.73;;
51288;SDS011;37372;52.294;5.152;2022-07-25T05:26:29;18.35;;;10.95;;
51288;SDS011;37372;52.294;5.152;2022-07-25T05:28:54;13.45;;;10.35;;
51288;SDS011;37372;52.294;5.152;2022-07-25T05:31:19;16.15;;;11.73;;
51288;SDS011;37372;52.294;5.152;2022-07-25T05:33:45;15.77;;;11.18;;
51288;SDS011;37372;52.294;5.152;2022-07-25T05:36:10;14.10;;;10.35;;
51288;SDS011;37372;52.294;5.152;2022-07-25T05:38:38;16.88;;;11.30;;
51288;SDS011;37372;52.294;5.152;2022-07-25T05:41:03;12.07;;;9.95;;
51288;SDS011;37372;52.294;5.152;2022-07-25T05:43:29;15.05;;;9.60;;
51288;SDS011;37372;52.294;5.152;2022-07-25T05:45:58;13.68;;;10.43;;
51288;SDS011;37372;52.294;5.152;2022-07-25T05:48:25;13.23;;;9.77;;
51288;SDS011;37372;52.294;5.152;2022-07-25T05:50:50;11.75;;;8.88;;
51288;SDS011;37372;52.294;5.152;2022-07-25T05:53:15;8.98;;;7.63;;
51288;SDS011;37372;52.294;5.152;2022-07-25T05:55:41;16.33;;;9.90;;
51288;SDS011;37372;52.294;5.152;2022-07-25T05:58:06;10.50;;;7.70;;
51288;SDS011;37372;52.294;5.152;2022-07-25T06:00:33;10.05;;;8.23;;
51288;SDS011;37372;52.294;5.152;2022-07-25T06:02:58;9.07;;;6.45;;
51288;SDS011;37372;52.294;5.152;2022-07-25T06:05:26;9.48;;;8.15;;
51288;SDS011;37372;52.294;5.152;2022-07-25T06:07:52;8.10;;;6.35;;
51288;SDS011;37372;52.294;5.152;2022-07-25T06:10:17;9.57;;;5.55;;
51288;SDS011;37372;52.294;5.152;2022-07-25T06:12:43;7.80;;;5.32;;
51288;SDS011;37372;52.294;5.152;2022-07-25T06:15:08;7.88;;;4.20;;
51288;SDS011;37372;52.294;5.152;2022-07-25T06:17:34;7.35;;;4.35;;
51288;SDS011;37372;52.294;5.152;2022-07-25T06:19:59;7.00;;;3.30;;
51288;SDS011;37372;52.294;5.152;2022-07-25T06:22:24;9.02;;;3.63;;
51288;SDS011;37372;52.294;5.152;2022-07-25T06:24:54;6.22;;;3.60;;
51288;SDS011;37372;52.294;5.152;2022-07-25T06:27:19;8.18;;;3.90;;
51288;SDS011;37372;52.294;5.152;2022-07-25T06:29:44;8.18;;;3.13;;
51288;SDS011;37372;52.294;5.152;2022-07-25T06:32:10;5.22;;;2.80;;
51288;SDS011;37372;52.294;5.152;2022-07-25T06:34:38;6.43;;;3.83;;
51288;SDS011;37372;52.294;5.152;2022-07-25T06:37:03;6.07;;;3.60;;
51288;SDS011;37372;52.294;5.152;2022-07-25T06:39:29;7.20;;;3.88;;
51288;SDS011;37372;52.294;5.152;2022-07-25T06:41:54;4.75;;;3.00;;
51288;SDS011;37372;52.294;5.152;2022-07-25T06:44:20;4.38;;;2.90;;
51288;SDS011;37372;52.294;5.152;2022-07-25T06:46:45;6.47;;;3.20;;
51288;SDS011;37372;52.294;5.152;2022-07-25T06:49:10;6.03;;;3.00;;
51288;SDS011;37372;52.294;5.152;2022-07-25T06:51:36;4.25;;;2.83;;
51288;SDS011;37372;52.294;5.152;2022-07-25T06:54:01;4.72;;;2.90;;
51288;SDS011;37372;52.294;5.152;2022-07-25T06:56:26;5.43;;;2.55;;
51288;SDS011;37372;52.294;5.152;2022-07-25T06:58:58;6.03;;;2.45;;
51288;SDS011;37372;52.294;5.152;2022-07-25T07:01:24;3.90;;;2.20;;
51288;SDS011;37372;52.294;5.152;2022-07-25T07:03:49;4.57;;;2.22;;
51288;SDS011;37372;52.294;5.152;2022-07-25T07:06:14;3.85;;;1.92;;
51288;SDS011;37372;52.294;5.152;2022-07-25T07:08:40;2.92;;;1.80;;
51288;SDS011;37372;52.294;5.152;2022-07-25T07:11:08;4.43;;;2.05;;
51288;SDS011;37372;52.294;5.152;2022-07-25T07:13:33;8.30;;;2.65;;
51288;SDS011;37372;52.294;5.152;2022-07-25T07:15:59;5.50;;;2.10;;
51288;SDS011;37372;52.294;5.152;2022-07-25T07:18:24;3.97;;;1.73;;
51288;SDS011;37372;52.294;5.152;2022-07-25T07:20:59;5.60;;;1.70;;
51288;SDS011;37372;52.294;5.152;2022-07-25T07:23:25;5.55;;;1.65;;
51288;SDS011;37372;52.294;5.152;2022-07-25T07:25:51;8.82;;;1.90;;
51288;SDS011;37372;52.294;5.152;2022-07-25T07:28:16;5.88;;;1.55;;
51288;SDS011;37372;52.294;5.152;2022-07-25T07:30:41;3.33;;;1.70;;
51288;SDS011;37372;52.294;5.152;2022-07-25T07:33:07;3.83;;;1.80;;
51288;SDS011;37372;52.294;5.152;2022-07-25T07:35:32;6.72;;;1.95;;
51288;SDS011;37372;52.294;5.152;2022-07-25T07:37:58;6.78;;;1.63;;
51288;SDS011;37372;52.294;5.152;2022-07-25T07:40:23;6.32;;;2.20;;
51288;SDS011;37372;52.294;5.152;2022-07-25T07:42:50;2.80;;;1.20;;
51288;SDS011;37372;52.294;5.152;2022-07-25T07:45:18;4.82;;;2.10;;
51288;SDS011;37372;52.294;5.152;2022-07-25T07:47:46;4.40;;;1.70;;
51288;SDS011;37372;52.294;5.152;2022-07-25T07:50:13;7.78;;;1.30;;
51288;SDS011;37372;52.294;5.152;2022-07-25T07:52:40;6.68;;;1.15;;
51288;SDS011;37372;52.294;5.152;2022-07-25T07:55:06;5.53;;;1.27;;
51288;SDS011;37372;52.294;5.152;2022-07-25T07:57:50;8.35;;;1.42;;
51288;SDS011;37372;52.294;5.152;2022-07-25T08:00:16;7.07;;;1.90;;
51288;SDS011;37372;52.294;5.152;2022-07-25T08:02:46;4.65;;;1.80;;
51288;SDS011;37372;52.294;5.152;2022-07-25T08:05:19;4.95;;;1.55;;
51288;SDS011;37372;52.294;5.152;2022-07-25T08:07:46;8.98;;;2.20;;
51288;SDS011;37372;52.294;5.152;2022-07-25T08:10:11;7.85;;;1.67;;
51288;SDS011;37372;52.294;5.152;2022-07-25T08:12:40;4.05;;;1.42;;
51288;SDS011;37372;52.294;5.152;2022-07-25T08:15:06;9.45;;;2.05;;
51288;SDS011;37372;52.294;5.152;2022-07-25T08:17:32;8.50;;;1.90;;
51288;SDS011;37372;52.294;5.152;2022-07-25T08:19:58;7.22;;;2.13;;
51288;SDS011;37372;52.294;5.152;2022-07-25T08:22:23;5.00;;;1.75;;
51288;SDS011;37372;52.294;5.152;2022-07-25T08:24:48;5.95;;;1.75;;
51288;SDS011;37372;52.294;5.152;2022-07-25T08:27:14;11.52;;;1.70;;
51288;SDS011;37372;52.294;5.152;2022-07-25T08:29:39;9.35;;;1.77;;
51288;SDS011;37372;52.294;5.152;2022-07-25T08:32:05;7.72;;;2.03;;
51288;SDS011;37372;52.294;5.152;2022-07-25T08:34:30;8.63;;;2.45;;
51288;SDS011;37372;52.294;5.152;2022-07-25T08:36:55;7.35;;;2.55;;
51288;SDS011;37372;52.294;5.152;2022-07-25T08:39:20;9.38;;;2.88;;
51288;SDS011;37372;52.294;5.152;2022-07-25T08:41:46;7.97;;;2.00;;
51288;SDS011;37372;52.294;5.152;2022-07-25T08:44:11;10.82;;;1.95;;
51288;SDS011;37372;52.294;5.152;2022-07-25T08:46:39;5.90;;;1.65;;
51288;SDS011;37372;52.294;5.152;2022-07-25T08:49:05;7.00;;;2.10;;
51288;SDS011;37372;52.294;5.152;2022-07-25T08:51:31;9.00;;;2.67;;
51288;SDS011;37372;52.294;5.152;2022-07-25T08:53:57;4.60;;;1.65;;
51288;SDS011;37372;52.294;5.152;2022-07-25T08:56:23;6.88;;;2.42;;
51288;SDS011;37372;52.294;5.152;2022-07-25T08:58:48;2.13;;;1.17;;
51288;SDS011;37372;52.294;5.152;2022-07-25T09:01:14;10.20;;;2.50;;
51288;SDS011;37372;52.294;5.152;2022-07-25T09:03:41;5.25;;;1.58;;
51288;SDS011;37372;52.294;5.152;2022-07-25T09:06:20;9.48;;;2.38;;
51288;SDS011;37372;52.294;5.152;2022-07-25T09:08:56;9.52;;;2.25;;
51288;SDS011;37372;52.294;5.152;2022-07-25T09:11:25;8.32;;;1.67;;
51288;SDS011;37372;52.294;5.152;2022-07-25T09:14:00;6.25;;;1.98;;
51288;SDS011;37372;52.294;5.152;2022-07-25T09:16:41;6.97;;;1.45;;
51288;SDS011;37372;52.294;5.152;2022-07-25T09:19:15;7.45;;;2.53;;
51288;SDS011;37372;52.294;5.152;2022-07-25T09:21:43;5.25;;;2.78;;
51288;SDS011;37372;52.294;5.152;2022-07-25T09:24:10;5.43;;;1.92;;
51288;SDS011;37372;52.294;5.152;2022-07-25T09:26:50;3.35;;;1.65;;
51288;SDS011;37372;52.294;5.152;2022-07-25T09:29:21;5.85;;;1.60;;
51288;SDS011;37372;52.294;5.152;2022-07-25T09:31:52;6.50;;;1.90;;
51288;SDS011;37372;52.294;5.152;2022-07-25T09:34:39;7.80;;;2.15;;
51288;SDS011;37372;52.294;5.152;2022-07-25T09:37:08;5.55;;;1.60;;
51288;SDS011;37372;52.294;5.152;2022-07-25T09:39:40;5.10;;;1.58;;
51288;SDS011;37372;52.294;5.152;2022-07-25T09:44:59;3.28;;;1.30;;
51288;SDS011;37372;52.294;5.152;2022-07-25T09:47:27;4.78;;;1.48;;
51288;SDS011;37372;52.294;5.152;2022-07-25T09:49:53;4.65;;;1.60;;
51288;SDS011;37372;52.294;5.152;2022-07-25T09:52:18;7.97;;;2.05;;
51288;SDS011;37372;52.294;5.152;2022-07-25T09:54:43;9.55;;;2.38;;
51288;SDS011;37372;52.294;5.152;2022-07-25T09:57:09;6.47;;;2.70;;
51288;SDS011;37372;52.294;5.152;2022-07-25T09:59:35;4.35;;;1.67;;
51288;SDS011;37372;52.294;5.152;2022-07-25T10:02:06;8.32;;;1.90;;
51288;SDS011;37372;52.294;5.152;2022-07-25T10:04:44;5.80;;;1.85;;
51288;SDS011;37372;52.294;5.152;2022-07-25T10:07:13;4.60;;;1.45;;
51288;SDS011;37372;52.294;5.152;2022-07-25T10:09:41;8.57;;;2.22;;
51288;SDS011;37372;52.294;5.152;2022-07-25T10:12:07;10.55;;;1.90;;
51288;SDS011;37372;52.294;5.152;2022-07-25T10:14:34;5.72;;;1.58;;
51288;SDS011;37372;52.294;5.152;2022-07-25T10:17:01;6.82;;;1.90;;
51288;SDS011;37372;52.294;5.152;2022-07-25T10:22:04;13.13;;;1.98;;
51288;SDS011;37372;52.294;5.152;2022-07-25T10:24:34;6.82;;;1.88;;
51288;SDS011;37372;52.294;5.152;2022-07-25T10:27:08;4.97;;;1.70;;
51288;SDS011;37372;52.294;5.152;2022-07-25T10:29:36;5.75;;;1.88;;
51288;SDS011;37372;52.294;5.152;2022-07-25T10:32:06;8.13;;;2.65;;
51288;SDS011;37372;52.294;5.152;2022-07-25T10:34:33;7.68;;;1.70;;
51288;SDS011;37372;52.294;5.152;2022-07-25T10:37:09;7.20;;;2.20;;
51288;SDS011;37372;52.294;5.152;2022-07-25T10:39:45;4.97;;;1.73;;
51288;SDS011;37372;52.294;5.152;2022-07-25T10:42:16;5.28;;;1.98;;
51288;SDS011;37372;52.294;5.152;2022-07-25T10:44:50;8.05;;;2.00;;
51288;SDS011;37372;52.294;5.152;2022-07-25T10:47:21;7.00;;;2.20;;
51288;SDS011;37372;52.294;5.152;2022-07-25T10:49:54;5.95;;;1.98;;
51288;SDS011;37372;52.294;5.152;2022-07-25T10:52:21;7.20;;;1.92;;
51288;SDS011;37372;52.294;5.152;2022-07-25T10:54:58;5.68;;;2.22;;
51288;SDS011;37372;52.294;5.152;2022-07-25T10:57:26;10.75;;;2.28;;
51288;SDS011;37372;52.294;5.152;2022-07-25T10:59:52;8.32;;;2.72;;
51288;SDS011;37372;52.294;5.152;2022-07-25T11:02:17;7.50;;;2.63;;
51288;SDS011;37372;52.294;5.152;2022-07-25T11:04:59;9.52;;;2.78;;
51288;SDS011;37372;52.294;5.152;2022-07-25T11:07:27;7.07;;;2.15;;
51288;SDS011;37372;52.294;5.152;2022-07-25T11:10:00;8.00;;;2.20;;
51288;SDS011;37372;52.294;5.152;2022-07-25T11:12:26;8.07;;;2.35;;
51288;SDS011;37372;52.294;5.152;2022-07-25T11:15:02;5.88;;;2.15;;
51288;SDS011;37372;52.294;5.152;2022-07-25T11:17:29;10.43;;;2.60;;
51288;SDS011;37372;52.294;5.152;2022-07-25T11:19:56;7.32;;;2.80;;
51288;SDS011;37372;52.294;5.152;2022-07-25T11:22:27;8.32;;;2.45;;
51288;SDS011;37372;52.294;5.152;2022-07-25T11:24:54;10.63;;;2.90;;
51288;SDS011;37372;52.294;5.152;2022-07-25T11:27:24;9.45;;;2.38;;
51288;SDS011;37372;52.294;5.152;2022-07-25T11:29:51;15.63;;;3.20;;
51288;SDS011;37372;52.294;5.152;2022-07-25T11:32:17;11.68;;;3.10;;
51288;SDS011;37372;52.294;5.152;2022-07-25T11:34:45;7.43;;;2.97;;
51288;SDS011;37372;52.294;5.152;2022-07-25T11:37:16;14.45;;;3.83;;
51288;SDS011;37372;52.294;5.152;2022-07-25T11:39:43;10.45;;;3.20;;
51288;SDS011;37372;52.294;5.152;2022-07-25T11:42:11;12.68;;;3.35;;
51288;SDS011;37372;52.294;5.152;2022-07-25T11:44:44;12.00;;;2.80;;
51288;SDS011;37372;52.294;5.152;2022-07-25T11:47:21;9.52;;;2.97;;
51288;SDS011;37372;52.294;5.152;2022-07-25T11:49:47;10.13;;;3.38;;
51288;SDS011;37372;52.294;5.152;2022-07-25T11:52:20;14.20;;;3.65;;
51288;SDS011;37372;52.294;5.152;2022-07-25T11:57:21;9.25;;;2.95;;
51288;SDS011;37372;52.294;5.152;2022-07-25T11:59:48;9.15;;;2.47;;
51288;SDS011;37372;52.294;5.152;2022-07-25T12:02:20;11.25;;;2.63;;
51288;SDS011;37372;52.294;5.152;2022-07-25T12:04:56;8.82;;;2.55;;
51288;SDS011;37372;52.294;5.152;2022-07-25T12:07:36;13.63;;;2.47;;
51288;SDS011;37372;52.294;5.152;2022-07-25T12:10:02;10.15;;;2.95;;
51288;SDS011;37372;52.294;5.152;2022-07-25T12:12:27;9.50;;;2.22;;
51288;SDS011;37372;52.294;5.152;2022-07-25T12:14:53;10.68;;;2.60;;
51288;SDS011;37372;52.294;5.152;2022-07-25T12:17:18;9.57;;;1.98;;
51288;SDS011;37372;52.294;5.152;2022-07-25T12:19:44;7.25;;;2.65;;
51288;SDS011;37372;52.294;5.152;2022-07-25T12:22:11;7.82;;;2.55;;
51288;SDS011;37372;52.294;5.152;2022-07-25T12:24:36;6.15;;;2.20;;
51288;SDS011;37372;52.294;5.152;2022-07-25T12:27:01;6.28;;;1.90;;
51288;SDS011;37372;52.294;5.152;2022-07-25T12:29:27;10.93;;;2.65;;
51288;SDS011;37372;52.294;5.152;2022-07-25T12:31:52;8.68;;;2.10;;
51288;SDS011;37372;52.294;5.152;2022-07-25T12:34:17;7.85;;;2.25;;
51288;SDS011;37372;52.294;5.152;2022-07-25T12:36:43;6.40;;;2.00;;
51288;SDS011;37372;52.294;5.152;2022-07-25T12:39:09;7.47;;;2.22;;
51288;SDS011;37372;52.294;5.152;2022-07-25T12:41:34;6.70;;;1.50;;
51288;SDS011;37372;52.294;5.152;2022-07-25T12:44:00;6.85;;;1.85;;
51288;SDS011;37372;52.294;5.152;2022-07-25T12:46:26;5.32;;;1.33;;
51288;SDS011;37372;52.294;5.152;2022-07-25T12:48:52;5.65;;;1.98;;
51288;SDS011;37372;52.294;5.152;2022-07-25T12:51:17;7.00;;;1.60;;
51288;SDS011;37372;52.294;5.152;2022-07-25T12:53:44;11.45;;;2.03;;
51288;SDS011;37372;52.294;5.152;2022-07-25T12:56:09;9.02;;;2.15;;
51288;SDS011;37372;52.294;5.152;2022-07-25T12:58:34;5.95;;;1.48;;
51288;SDS011;37372;52.294;5.152;2022-07-25T13:01:00;10.95;;;2.33;;
51288;SDS011;37372;52.294;5.152;2022-07-25T13:03:26;9.27;;;1.95;;
51288;SDS011;37372;52.294;5.152;2022-07-25T13:05:51;6.97;;;1.80;;
51288;SDS011;37372;52.294;5.152;2022-07-25T13:08:16;9.35;;;2.42;;
51288;SDS011;37372;52.294;5.152;2022-07-25T13:10:42;8.70;;;1.83;;
51288;SDS011;37372;52.294;5.152;2022-07-25T13:13:07;6.75;;;1.45;;
51288;SDS011;37372;52.294;5.152;2022-07-25T13:15:33;7.13;;;1.80;;
51288;SDS011;37372;52.294;5.152;2022-07-25T13:18:00;5.57;;;1.83;;
51288;SDS011;37372;52.294;5.152;2022-07-25T13:20:26;8.93;;;2.10;;
51288;SDS011;37372;52.294;5.152;2022-07-25T13:22:52;8.27;;;1.58;;
51288;SDS011;37372;52.294;5.152;2022-07-25T13:25:17;10.43;;;2.30;;
51288;SDS011;37372;52.294;5.152;2022-07-25T13:27:43;8.20;;;2.35;;
51288;SDS011;37372;52.294;5.152;2022-07-25T13:30:08;6.82;;;2.03;;
51288;SDS011;37372;52.294;5.152;2022-07-25T13:32:34;7.63;;;1.92;;
51288;SDS011;37372;52.294;5.152;2022-07-25T13:35:00;11.90;;;1.58;;
51288;SDS011;37372;52.294;5.152;2022-07-25T13:37:26;11.13;;;1.80;;
51288;SDS011;37372;52.294;5.152;2022-07-25T13:39:51;6.32;;;1.95;;
51288;SDS011;37372;52.294;5.152;2022-07-25T13:42:16;10.02;;;1.77;;
51288;SDS011;37372;52.294;5.152;2022-07-25T13:44:42;12.68;;;2.15;;
51288;SDS011;37372;52.294;5.152;2022-07-25T13:47:07;5.55;;;1.45;;
51288;SDS011;37372;52.294;5.152;2022-07-25T13:49:33;7.95;;;1.77;;
51288;SDS011;37372;52.294;5.152;2022-07-25T13:52:00;5.88;;;1.45;;
51288;SDS011;37372;52.294;5.152;2022-07-25T13:54:26;4.15;;;1.40;;
51288;SDS011;37372;52.294;5.152;2022-07-25T13:56:51;5.20;;;1.70;;
51288;SDS011;37372;52.294;5.152;2022-07-25T13:59:16;10.10;;;2.10;;
51288;SDS011;37372;52.294;5.152;2022-07-25T14:01:42;10.20;;;1.98;;
51288;SDS011;37372;52.294;5.152;2022-07-25T14:04:08;6.18;;;2.10;;
51288;SDS011;37372;52.294;5.152;2022-07-25T14:06:33;3.08;;;0.90;;
51288;SDS011;37372;52.294;5.152;2022-07-25T14:08:58;7.95;;;1.70;;
51288;SDS011;37372;52.294;5.152;2022-07-25T14:11:24;8.02;;;1.42;;
51288;SDS011;37372;52.294;5.152;2022-07-25T14:13:49;6.68;;;1.70;;
51288;SDS011;37372;52.294;5.152;2022-07-25T14:16:15;8.27;;;1.33;;
51288;SDS011;37372;52.294;5.152;2022-07-25T14:18:44;4.53;;;1.13;;
51288;SDS011;37372;52.294;5.152;2022-07-25T14:21:09;8.55;;;2.03;;
51288;SDS011;37372;52.294;5.152;2022-07-25T14:23:34;4.65;;;1.75;;
51288;SDS011;37372;52.294;5.152;2022-07-25T14:26:00;3.45;;;1.20;;
51288;SDS011;37372;52.294;5.152;2022-07-25T14:28:25;6.13;;;1.67;;
51288;SDS011;37372;52.294;5.152;2022-07-25T14:30:51;6.55;;;1.73;;
51288;SDS011;37372;52.294;5.152;2022-07-25T14:33:16;5.90;;;1.67;;
51288;SDS011;37372;52.294;5.152;2022-07-25T14:35:41;5.90;;;1.60;;
51288;SDS011;37372;52.294;5.152;2022-07-25T14:38:07;6.50;;;1.92;;
51288;SDS011;37372;52.294;5.152;2022-07-25T14:40:32;6.72;;;1.42;;
51288;SDS011;37372;52.294;5.152;2022-07-25T14:42:58;8.60;;;1.30;;
51288;SDS011;37372;52.294;5.152;2022-07-25T14:45:23;5.95;;;1.27;;
51288;SDS011;37372;52.294;5.152;2022-07-25T14:47:48;9.73;;;2.47;;
51288;SDS011;37372;52.294;5.152;2022-07-25T14:50:14;9.98;;;2.25;;